createdAt,value
2018-12-29T00:02:13.969Z,102382.31
2018-12-29T00:04:42.716Z,102377.61
2018-12-29T00:07:11.317Z,102369.19
2018-12-29T00:09:39.864Z,102374.94
2018-12-29T00:12:08.482Z,102372.31
2018-12-29T00:14:37.150Z,102371.22
2018-12-29T00:17:05.990Z,102361.72
2018-12-29T00:19:35.691Z,102354.76
2018-12-29T00:22:04.332Z,102363.11
2018-12-29T00:24:32.810Z,102373.33
2018-12-29T00:27:01.723Z,102366.34
2018-12-29T00:29:30.236Z,102374.77
2018-12-29T00:32:00.340Z,102373.19
2018-12-29T00:34:28.864Z,102373.19
2018-12-29T00:36:57.631Z,102373.66
2018-12-29T00:39:26.191Z,102371.98
2018-12-29T00:41:54.761Z,102372.31
2018-12-29T00:44:23.301Z,102370.42
2018-12-29T00:46:51.833Z,102367.59
2018-12-29T00:49:20.282Z,102361.72
2018-12-29T00:51:48.719Z,102360.08
2018-12-29T00:54:17.198Z,102358.48
2018-12-29T00:56:45.721Z,102358.48
2018-12-29T00:59:14.281Z,102352.02
2018-12-29T01:01:42.945Z,102352.20
2018-12-29T01:04:11.471Z,102360.45
2018-12-29T01:06:40.067Z,102353.77
2018-12-29T01:09:08.603Z,102356.84
2018-12-29T01:11:37.166Z,102355.84
2018-12-29T01:14:06.752Z,102355.56
2018-12-29T01:16:35.567Z,102360.62
2018-12-29T01:19:04.307Z,102357.52
2018-12-29T01:21:32.814Z,102360.95
2018-12-29T01:24:01.785Z,102364.84
2018-12-29T01:26:30.449Z,102368.71
2018-12-29T01:28:59.744Z,102366.23
2018-12-29T01:31:28.255Z,102370.66
2018-12-29T01:33:56.811Z,102370.66
2018-12-29T01:36:25.374Z,102372.34
2018-12-29T01:38:53.860Z,102375.17
2018-12-29T01:41:22.487Z,102374.97
2018-12-29T01:43:50.877Z,102372.97
2018-12-29T01:46:19.521Z,102359.84
2018-12-29T01:48:48.099Z,102373.52
2018-12-29T01:51:16.697Z,102373.56
2018-12-29T01:53:47.428Z,102374.09
2018-12-29T01:56:15.977Z,102372.85
2018-12-29T01:58:44.511Z,102375.48
2018-12-29T02:01:13.551Z,102377.54
2018-12-29T02:03:42.243Z,102372.36
2018-12-29T02:06:11.065Z,102376.98
2018-12-29T02:08:39.640Z,102376.98
2018-12-29T02:11:08.459Z,102388.45
2018-12-29T02:13:37.068Z,102383.66
2018-12-29T02:16:05.591Z,102387.19
2018-12-29T02:18:34.046Z,102386.31
2018-12-29T02:21:02.655Z,102386.31
2018-12-29T02:23:31.087Z,102384.66
2018-12-29T02:25:59.552Z,102383.19
2018-12-29T02:28:28.411Z,102384.46
2018-12-29T02:30:56.879Z,102383.68
2018-12-29T02:33:25.475Z,102378.23
2018-12-29T02:35:54.047Z,102378.23
2018-12-29T02:38:22.492Z,102370.41
2018-12-29T02:40:50.928Z,102369.42
2018-12-29T02:43:19.454Z,102372.83
2018-12-29T02:45:48.275Z,102364.67
2018-12-29T02:48:16.881Z,102359.97
2018-12-29T02:50:45.512Z,102357.81
2018-12-29T02:53:14.300Z,102357.01
2018-12-29T02:55:42.784Z,102357.01
2018-12-29T02:58:11.347Z,102351.21
2018-12-29T03:00:39.911Z,102351.21
2018-12-29T03:03:09.965Z,102360.34
2018-12-29T03:05:38.501Z,102357.77
2018-12-29T03:08:07.207Z,102345.98
2018-12-29T03:10:35.663Z,102345.98
2018-12-29T03:13:04.229Z,102336.64
2018-12-29T03:15:32.737Z,102340.41
2018-12-29T03:18:01.351Z,102342.09
2018-12-29T03:20:29.858Z,102342.09
2018-12-29T03:22:58.337Z,102344.17
2018-12-29T03:25:27.256Z,102342.05
2018-12-29T03:27:55.797Z,102342.05
2018-12-29T03:30:24.539Z,102333.23
2018-12-29T03:32:53.294Z,102333.23
2018-12-29T03:35:22.111Z,102333.10
2018-12-29T03:37:50.829Z,102323.78
2018-12-29T03:40:19.349Z,102337.26
2018-12-29T03:42:48.024Z,102333.03
2018-12-29T03:45:16.494Z,102331.34
2018-12-29T03:47:45.117Z,102333.62
2018-12-29T03:50:13.679Z,102332.45
2018-12-29T03:52:42.230Z,102322.73
2018-12-29T03:55:10.862Z,102337.05
2018-12-29T03:57:39.308Z,102329.27
2018-12-29T04:00:08.243Z,102335.37
2018-12-29T04:02:36.764Z,102334.49
2018-12-29T04:05:05.555Z,102335.30
2018-12-29T04:07:40.112Z,102328.51
2018-12-29T04:10:16.094Z,102339.94
2018-12-29T04:12:46.997Z,102341.68
2018-12-29T04:15:15.488Z,102346.73
2018-12-29T04:17:44.035Z,102346.73
2018-12-29T04:20:12.524Z,102336.30
2018-12-29T04:22:41.349Z,102336.30
2018-12-29T04:25:09.990Z,102344.44
2018-12-29T04:27:38.621Z,102345.64
2018-12-29T04:30:08.428Z,102331.70
2018-12-29T04:32:37.057Z,102338.05
2018-12-29T04:35:06.363Z,102343.75
2018-12-29T04:37:35.273Z,102341.52
2018-12-29T04:40:03.855Z,102346.05
2018-12-29T04:42:32.930Z,102343.30
2018-12-29T04:45:01.744Z,102345.74
2018-12-29T04:47:30.474Z,102341.77
2018-12-29T04:49:59.056Z,102341.77
2018-12-29T04:52:27.597Z,102343.45
2018-12-29T04:54:56.094Z,102343.48
2018-12-29T04:57:24.629Z,102347.28
2018-12-29T04:59:53.343Z,102347.72
2018-12-29T05:02:21.845Z,102342.97
2018-12-29T05:04:50.467Z,102342.97
2018-12-29T05:07:19.071Z,102348.38
2018-12-29T05:09:47.577Z,102343.90
2018-12-29T05:12:16.204Z,102348.71
2018-12-29T05:14:44.846Z,102360.06
2018-12-29T05:17:13.348Z,102346.75
2018-12-29T05:19:41.932Z,102357.95
2018-12-29T05:22:10.415Z,102344.89
2018-12-29T05:24:39.535Z,102344.89
2018-12-29T05:27:08.099Z,102344.02
2018-12-29T05:29:36.552Z,102337.70
2018-12-29T05:32:05.010Z,102344.19
2018-12-29T05:34:33.536Z,102344.19
2018-12-29T05:37:02.038Z,102342.52
2018-12-29T05:39:31.013Z,102344.89
2018-12-29T05:41:59.438Z,102346.27
2018-12-29T05:44:27.869Z,102346.27
2018-12-29T05:46:56.300Z,102347.44
2018-12-29T05:49:25.326Z,102347.44
2018-12-29T05:51:53.793Z,102346.34
2018-12-29T05:54:22.327Z,102350.66
2018-12-29T05:56:50.818Z,102353.80
2018-12-29T05:59:19.268Z,102348.39
2018-12-29T06:01:47.771Z,102345.83
2018-12-29T06:04:16.257Z,102345.83
2018-12-29T06:06:44.782Z,102356.97
2018-12-29T06:09:13.267Z,102348.61
2018-12-29T06:11:41.850Z,102355.70
2018-12-29T06:14:10.430Z,102357.78
2018-12-29T06:16:38.906Z,102354.20
2018-12-29T06:19:07.395Z,102359.52
2018-12-29T06:21:35.845Z,102361.42
2018-12-29T06:24:04.316Z,102357.55
2018-12-29T06:26:32.875Z,102361.61
2018-12-29T06:29:01.464Z,102361.61
2018-12-29T06:31:29.977Z,102360.58
2018-12-29T06:33:58.474Z,102359.16
2018-12-29T06:36:26.958Z,102359.92
2018-12-29T06:38:55.669Z,102357.77
2018-12-29T06:41:24.209Z,102365.43
2018-12-29T06:43:52.706Z,102366.31
2018-12-29T06:46:21.280Z,102379.50
2018-12-29T06:48:50.047Z,102379.50
2018-12-29T06:51:18.828Z,102374.68
2018-12-29T06:53:47.255Z,102368.36
2018-12-29T06:56:15.744Z,102375.05
2018-12-29T06:58:44.286Z,102375.05
2018-12-29T07:01:12.979Z,102376.77
2018-12-29T07:03:41.499Z,102376.73
2018-12-29T07:06:09.995Z,102372.23
2018-12-29T07:08:38.456Z,102377.83
2018-12-29T07:11:06.960Z,102378.08
2018-12-29T07:13:35.488Z,102378.59
2018-12-29T07:16:04.029Z,102374.39
2018-12-29T07:18:32.674Z,102378.23
2018-12-29T07:21:01.454Z,102377.94
2018-12-29T07:23:29.974Z,102379.00
2018-12-29T07:25:58.818Z,102380.16
2018-12-29T07:28:27.607Z,102387.29
2018-12-29T07:30:56.093Z,102387.29
2018-12-29T07:33:24.669Z,102374.98
2018-12-29T07:35:54.182Z,102370.67
2018-12-29T07:38:22.655Z,102380.38
2018-12-29T07:40:51.199Z,102367.56
2018-12-29T07:43:19.622Z,102371.65
2018-12-29T07:45:48.096Z,102379.50
2018-12-29T07:48:16.535Z,102378.80
2018-12-29T07:50:45.092Z,102381.95
2018-12-29T07:53:13.980Z,102381.95
2018-12-29T07:55:42.460Z,102375.77
2018-12-29T07:58:11.027Z,102374.64
2018-12-29T08:00:39.495Z,102374.64
2018-12-29T08:03:08.211Z,102382.56
2018-12-29T08:05:36.799Z,102381.77
2018-12-29T08:08:05.456Z,102378.58
2018-12-29T08:10:34.063Z,102370.64
2018-12-29T08:13:02.566Z,102370.00
2018-12-29T08:15:31.228Z,102360.78
2018-12-29T08:17:59.955Z,102363.64
2018-12-29T08:20:28.437Z,102351.80
2018-12-29T08:22:56.922Z,102359.34
2018-12-29T08:25:25.601Z,102356.41
2018-12-29T08:27:54.195Z,102359.84
2018-12-29T08:30:23.192Z,102353.82
2018-12-29T08:32:54.427Z,102353.82
2018-12-29T08:35:26.804Z,102354.49
2018-12-29T08:37:55.362Z,102349.67
2018-12-29T08:40:24.225Z,102349.88
2018-12-29T08:42:54.366Z,102349.88
2018-12-29T08:45:23.018Z,102333.89
2018-12-29T08:47:51.612Z,102333.89
2018-12-29T08:50:25.749Z,102332.67
2018-12-29T08:52:54.401Z,102343.98
2018-12-29T08:55:23.500Z,102337.28
2018-12-29T08:57:51.947Z,102339.98
2018-12-29T09:00:20.493Z,102336.21
2018-12-29T09:02:49.009Z,102333.55
2018-12-29T09:05:17.619Z,102335.70
2018-12-29T09:07:46.072Z,102325.64
2018-12-29T09:10:14.683Z,102326.11
2018-12-29T09:12:43.146Z,102329.10
2018-12-29T09:15:11.599Z,102335.20
2018-12-29T09:17:40.108Z,102326.95
2018-12-29T09:20:08.752Z,102329.20
2018-12-29T09:22:37.644Z,102326.31
2018-12-29T09:25:06.158Z,102321.70
2018-12-29T09:27:34.646Z,102324.90
2018-12-29T09:30:03.306Z,102315.94
2018-12-29T09:32:33.895Z,102318.20
2018-12-29T09:35:03.889Z,102317.48
2018-12-29T09:37:32.454Z,102326.17
2018-12-29T09:40:01.272Z,102305.39
2018-12-29T09:42:29.730Z,102260.19
2018-12-29T09:44:58.356Z,102275.86
2018-12-29T09:47:26.876Z,102294.91
2018-12-29T09:49:55.327Z,102283.39
2018-12-29T09:52:23.828Z,102286.83
2018-12-29T09:54:52.365Z,102275.53
2018-12-29T09:57:20.864Z,102271.47
2018-12-29T09:59:49.372Z,102265.34
2018-12-29T10:02:17.983Z,102261.39
2018-12-29T10:04:46.581Z,102269.48
2018-12-29T10:07:15.058Z,102264.39
2018-12-29T10:09:43.580Z,102263.08
2018-12-29T10:12:12.061Z,102254.27
2018-12-29T10:14:40.542Z,102244.44
2018-12-29T10:17:09.313Z,102244.23
2018-12-29T10:19:39.361Z,102238.88
2018-12-29T10:22:07.990Z,102238.96
2018-12-29T10:24:36.877Z,102226.48
2018-12-29T10:27:05.618Z,102229.80
2018-12-29T10:29:34.271Z,102223.86
2018-12-29T10:32:02.766Z,102217.38
2018-12-29T10:34:31.372Z,102208.97
2018-12-29T10:36:59.940Z,102201.30
2018-12-29T10:39:28.514Z,102194.95
2018-12-29T10:41:57.111Z,102186.41
2018-12-29T10:44:25.853Z,102179.16
2018-12-29T10:46:54.533Z,102183.66
2018-12-29T10:49:23.033Z,102183.66
2018-12-29T10:51:51.622Z,102172.75
2018-12-29T10:54:23.761Z,102172.83
2018-12-29T10:56:52.528Z,102162.52
2018-12-29T10:59:21.270Z,102153.00
2018-12-29T11:01:50.009Z,102154.20
2018-12-29T11:04:18.777Z,102157.21
2018-12-29T11:06:47.534Z,102151.77
2018-12-29T11:09:16.145Z,102153.21
2018-12-29T11:11:44.713Z,102159.61
2018-12-29T11:14:13.335Z,102153.70
2018-12-29T11:16:41.951Z,102152.17
2018-12-29T11:19:11.916Z,102149.47
2018-12-29T11:21:40.357Z,102150.75
2018-12-29T11:24:08.920Z,102154.19
2018-12-29T11:26:37.505Z,102153.78
2018-12-29T11:29:06.174Z,102150.84
2018-12-29T11:31:34.688Z,102155.95
2018-12-29T11:34:04.605Z,102143.66
2018-12-29T11:36:33.212Z,102143.34
2018-12-29T11:39:01.691Z,102136.12
2018-12-29T11:41:30.157Z,102129.38
2018-12-29T11:43:58.766Z,102118.73
2018-12-29T11:46:27.376Z,102106.73
2018-12-29T11:48:56.087Z,102118.02
2018-12-29T11:51:24.550Z,102116.05
2018-12-29T11:53:53.119Z,102110.19
2018-12-29T11:56:21.575Z,102109.80
2018-12-29T11:58:50.078Z,102106.28
2018-12-29T12:01:18.517Z,102095.88
2018-12-29T12:03:47.047Z,102091.34
2018-12-29T12:06:15.523Z,102098.69
2018-12-29T12:08:43.969Z,102094.19
2018-12-29T12:11:12.455Z,102098.85
2018-12-29T12:13:40.920Z,102098.36
2018-12-29T12:16:09.451Z,102107.55
2018-12-29T12:18:37.890Z,102101.12
2018-12-29T12:21:12.382Z,102098.48
2018-12-29T12:23:41.103Z,102096.89
2018-12-29T12:26:09.630Z,102095.69
2018-12-29T12:28:39.848Z,102091.14
2018-12-29T12:31:10.248Z,102089.10
2018-12-29T12:33:38.895Z,102082.18
2018-12-29T12:36:07.642Z,102070.31
2018-12-29T12:38:36.510Z,102069.91
2018-12-29T12:41:05.094Z,102071.60
2018-12-29T12:43:34.756Z,102094.91
2018-12-29T12:46:03.525Z,102105.31
2018-12-29T12:48:32.236Z,102112.13
2018-12-29T12:51:01.090Z,102096.12
2018-12-29T12:53:29.755Z,102075.72
2018-12-29T12:55:58.392Z,102075.72
2018-12-29T12:58:27.323Z,102074.98
2018-12-29T13:00:58.098Z,102086.34
2018-12-29T13:03:27.039Z,102084.55
2018-12-29T13:05:55.664Z,102092.61
2018-12-29T13:08:25.635Z,102068.55
2018-12-29T13:10:54.230Z,102061.39
2018-12-29T13:13:22.698Z,102071.72
2018-12-29T13:15:51.303Z,102071.72
2018-12-29T13:18:21.881Z,102066.62
2018-12-29T13:20:50.384Z,102069.18
2018-12-29T13:23:18.980Z,102073.16
2018-12-29T13:25:47.464Z,102044.98
2018-12-29T13:28:16.117Z,102034.47
2018-12-29T13:30:44.732Z,102039.62
2018-12-29T13:33:13.252Z,102026.81
2018-12-29T13:35:41.790Z,102008.88
2018-12-29T13:38:10.349Z,101996.80
2018-12-29T13:40:38.799Z,101996.80
2018-12-29T13:43:07.329Z,101991.03
2018-12-29T13:45:35.888Z,101989.08
2018-12-29T13:48:04.343Z,101989.08
2018-12-29T13:50:33.005Z,101965.20
2018-12-29T13:53:01.511Z,101952.47
2018-12-29T13:55:30.114Z,101947.86
2018-12-29T13:57:59.612Z,101941.13
2018-12-29T14:00:28.159Z,101952.20
2018-12-29T14:02:56.919Z,101944.58
2018-12-29T14:05:25.911Z,101928.80
2018-12-29T14:07:54.394Z,101934.86
2018-12-29T14:10:22.928Z,101921.76
2018-12-29T14:12:51.457Z,101913.14
2018-12-29T14:15:19.985Z,101904.57
2018-12-29T14:17:48.699Z,101905.05
2018-12-29T14:20:17.323Z,101894.27
2018-12-29T14:22:45.879Z,101909.58
2018-12-29T14:25:14.414Z,101893.38
2018-12-29T14:27:42.894Z,101886.17
2018-12-29T14:30:11.839Z,101880.30
2018-12-29T14:32:40.332Z,101880.30
2018-12-29T14:35:08.864Z,101869.23
2018-12-29T14:37:37.504Z,101845.70
2018-12-29T14:40:07.043Z,101845.70
2018-12-29T14:42:35.946Z,101846.18
2018-12-29T14:45:04.783Z,101843.68
2018-12-29T14:47:33.275Z,101824.88
2018-12-29T14:50:01.927Z,101826.25
2018-12-29T14:52:30.445Z,101840.36
2018-12-29T14:54:59.270Z,101832.72
2018-12-29T14:57:27.997Z,101811.80
2018-12-29T14:59:56.643Z,101811.80
2018-12-29T15:02:25.465Z,101818.64
2018-12-29T15:04:54.182Z,101807.39
2018-12-29T15:07:22.716Z,101793.69
2018-12-29T15:09:52.837Z,101793.69
2018-12-29T15:12:21.746Z,101804.94
2018-12-29T15:14:50.287Z,101792.95
2018-12-29T15:17:18.937Z,101781.00
2018-12-29T15:19:47.476Z,101772.92
2018-12-29T15:22:16.396Z,101790.84
2018-12-29T15:24:45.595Z,101801.97
2018-12-29T15:27:14.379Z,101812.52
2018-12-29T15:32:18.534Z,101837.67
2018-12-29T15:34:47.231Z,101838.95
2018-12-29T15:37:15.781Z,101843.44
2018-12-29T15:39:44.277Z,101849.30
2018-12-29T15:42:12.737Z,101860.37
2018-12-29T15:44:53.153Z,101850.46
2018-12-29T15:47:11.439Z,101841.77
2018-12-29T15:49:39.900Z,101836.58
2018-12-29T15:52:08.323Z,101825.98
2018-12-29T15:54:56.528Z,101821.28
2018-12-29T15:57:25.061Z,101790.95
2018-12-29T15:59:53.817Z,101779.37
2018-12-29T16:02:22.446Z,101778.72
2018-12-29T16:04:52.809Z,101768.75
2018-12-29T16:07:21.230Z,101758.45
2018-12-29T16:09:49.932Z,101743.55
2018-12-29T16:12:37.654Z,101750.53
2018-12-29T16:15:46.073Z,101744.90
2018-12-29T16:18:14.526Z,101743.48
2018-12-29T16:20:43.107Z,101741.52
2018-12-29T16:23:11.633Z,101735.00
2018-12-29T16:25:40.432Z,101733.18
2018-12-29T16:28:08.956Z,101726.38
2018-12-29T16:30:37.721Z,101722.59
2018-12-29T16:33:06.240Z,101729.41
2018-12-29T16:35:34.740Z,101716.88
2018-12-29T16:38:06.819Z,101723.76
2018-12-29T16:40:35.292Z,101718.69
2018-12-29T16:43:24.640Z,101724.86
2018-12-29T16:45:56.416Z,101715.84
2018-12-29T16:48:25.437Z,101714.73
2018-12-29T16:50:54.217Z,101708.22
2018-12-29T16:53:29.246Z,101709.45
2018-12-29T16:55:53.688Z,101708.88
2018-12-29T16:58:22.627Z,101706.78
2018-12-29T17:00:53.394Z,101701.45
2018-12-29T17:03:22.140Z,101704.02
2018-12-29T17:06:10.364Z,101703.91
2018-12-29T17:08:38.882Z,101697.83
2018-12-29T17:11:07.623Z,101685.48
2018-12-29T17:13:37.414Z,101687.73
2018-12-29T17:16:06.236Z,101677.10
2018-12-29T17:21:31.416Z,101671.49
2018-12-29T17:27:29.475Z,101661.68
2018-12-29T17:30:17.804Z,101651.67
2018-12-29T17:32:48.051Z,101651.67
2018-12-29T17:35:17.106Z,101626.42
2018-12-29T17:37:45.790Z,101644.52
2018-12-29T17:40:14.837Z,101633.36
2018-12-29T17:42:43.270Z,101626.95
2018-12-29T17:45:12.348Z,101637.77
2018-12-29T17:47:41.133Z,101633.87
2018-12-29T17:50:30.193Z,101620.00
2018-12-29T17:52:59.361Z,101612.69
2018-12-29T17:55:47.377Z,101600.39
2018-12-29T17:58:16.015Z,101603.30
2018-12-29T18:00:44.809Z,101600.28
2018-12-29T18:05:44.457Z,101588.35
2018-12-29T18:08:13.068Z,101579.52
2018-12-29T18:10:41.780Z,101570.14
2018-12-29T18:13:10.454Z,101570.14
2018-12-29T18:15:39.030Z,101563.78
2018-12-29T18:18:07.818Z,101551.97
2018-12-29T18:20:36.732Z,101540.90
2018-12-29T18:23:05.601Z,101530.20
2018-12-29T18:28:36.357Z,101528.57
2018-12-29T18:31:05.004Z,101519.19
2018-12-29T18:33:37.395Z,101519.48
2018-12-29T18:36:23.930Z,101508.34
2018-12-29T18:38:52.366Z,101502.34
2018-12-29T18:43:58.115Z,101500.77
2018-12-29T18:46:26.562Z,101504.69
2018-12-29T18:48:55.107Z,101490.87
2018-12-29T18:51:23.574Z,101473.30
2018-12-29T18:53:52.081Z,101481.04
2018-12-29T18:56:20.542Z,101479.70
2018-12-29T18:59:08.410Z,101469.47
2018-12-29T19:01:37.043Z,101461.42
2018-12-29T19:04:05.479Z,101461.42
2018-12-29T19:06:33.976Z,101468.74
2018-12-29T19:11:51.598Z,101462.08
2018-12-29T19:14:20.036Z,101451.06
2018-12-29T19:16:48.515Z,101449.88
2018-12-29T19:19:17.021Z,101446.91
2018-12-29T19:21:45.659Z,101444.38
2018-12-29T19:24:14.296Z,101438.35
2018-12-29T19:26:44.681Z,101431.53
2018-12-29T19:29:13.415Z,101440.49
2018-12-29T19:31:44.613Z,101423.84
2018-12-29T19:34:12.938Z,101436.20
2018-12-29T19:36:42.539Z,101426.87
2018-12-29T19:39:14.174Z,101411.08
2018-12-29T19:41:47.999Z,101415.84
2018-12-29T19:47:02.526Z,101394.16
2018-12-29T19:49:31.522Z,101394.16
2018-12-29T19:52:00.023Z,101397.17
2018-12-29T19:56:58.886Z,101379.28
2018-12-29T19:59:29.055Z,101372.87
2018-12-29T20:01:57.535Z,101374.16
2018-12-29T20:04:25.996Z,101374.95
2018-12-29T20:06:56.146Z,101384.32
2018-12-29T20:09:24.655Z,101374.11
2018-12-29T20:11:53.179Z,101377.13
2018-12-29T20:14:22.085Z,101365.61
2018-12-29T20:16:50.731Z,101367.30
2018-12-29T20:19:19.399Z,101368.28
2018-12-29T20:21:48.234Z,101372.59
2018-12-29T20:24:16.771Z,101355.14
2018-12-29T20:26:45.741Z,101360.39
2018-12-29T20:29:14.328Z,101345.91
2018-12-29T20:31:42.926Z,101353.64
2018-12-29T20:34:11.889Z,101351.11
2018-12-29T20:36:41.070Z,101349.80
2018-12-29T20:39:10.095Z,101360.91
2018-12-29T20:41:38.834Z,101349.76
2018-12-29T20:44:07.310Z,101377.09
2018-12-29T20:46:35.787Z,101368.91
2018-12-29T20:49:04.255Z,101365.44
2018-12-29T20:51:33.089Z,101376.09
2018-12-29T20:54:01.558Z,101378.20
2018-12-29T20:56:30.003Z,101365.77
2018-12-29T20:58:58.524Z,101377.62
2018-12-29T21:01:26.961Z,101380.98
2018-12-29T21:03:55.394Z,101392.46
2018-12-29T21:06:23.852Z,101401.39
2018-12-29T21:09:14.099Z,101384.31
2018-12-29T21:11:42.677Z,101382.59
2018-12-29T21:14:11.103Z,101372.94
2018-12-29T21:16:39.644Z,101398.88
2018-12-29T21:19:08.068Z,101390.59
2018-12-29T21:21:48.969Z,101377.62
2018-12-29T21:24:17.798Z,101377.62
2018-12-29T21:32:18.487Z,101395.63
2018-12-29T21:34:47.246Z,101386.99
2018-12-29T21:37:15.676Z,101389.09
2018-12-29T21:42:20.985Z,101386.41
2018-12-29T21:47:39.866Z,101381.59
2018-12-29T21:50:08.387Z,101391.38
2018-12-29T21:52:36.815Z,101390.55
2018-12-29T21:57:54.458Z,101385.34
2018-12-29T22:00:23.191Z,101399.37
2018-12-29T22:02:51.646Z,101395.73
2018-12-29T22:05:20.080Z,101404.69
2018-12-29T22:07:48.530Z,101400.03
2018-12-29T22:10:16.972Z,101408.01
2018-12-29T22:12:45.415Z,101405.45
2018-12-29T22:15:13.847Z,101398.55
2018-12-29T22:18:01.660Z,101409.76
2018-12-29T22:20:33.442Z,101409.76
2018-12-29T22:23:12.274Z,101414.51
2018-12-29T22:26:01.659Z,101409.81
2018-12-29T22:28:30.300Z,101403.81
2018-12-29T22:30:59.102Z,101412.30
2018-12-29T22:36:23.456Z,101410.58
2018-12-29T22:38:52.647Z,101405.41
2018-12-29T22:41:21.169Z,101405.45
2018-12-29T22:43:49.732Z,101396.91
2018-12-29T22:46:20.381Z,101402.02
2018-12-29T22:48:48.827Z,101396.44
2018-12-29T22:51:17.258Z,101390.83
2018-12-29T22:53:45.748Z,101404.12
2018-12-29T22:56:14.192Z,101407.09
2018-12-29T22:58:44.361Z,101422.89
2018-12-29T23:01:32.329Z,101404.12
2018-12-29T23:04:00.743Z,101404.12
2018-12-29T23:06:29.169Z,101408.83
2018-12-29T23:11:33.936Z,101400.28
2018-12-29T23:14:21.710Z,101422.02
2018-12-29T23:17:11.382Z,101405.75
2018-12-29T23:19:39.868Z,101405.75
2018-12-29T23:22:08.580Z,101410.09
2018-12-29T23:24:37.082Z,101412.26
2018-12-29T23:27:05.544Z,101412.26
2018-12-29T23:29:33.956Z,101424.23
2018-12-29T23:32:02.418Z,101431.91
2018-12-29T23:34:31.121Z,101434.01
2018-12-29T23:37:18.912Z,101435.73
2018-12-29T23:39:47.715Z,101435.73
2018-12-29T23:45:11.723Z,101431.33
2018-12-29T23:48:01.207Z,101444.30
2018-12-29T23:50:29.651Z,101444.30
2018-12-29T23:52:58.357Z,101452.84
2018-12-29T23:55:27.201Z,101437.17
2018-12-29T23:57:55.606Z,101438.87
